createdAt,value
2022-12-04T00:02:08.891Z,100674.84
2022-12-04T00:04:35.545Z,100678.44
2022-12-04T00:07:02.336Z,100676.41
2022-12-04T00:09:28.948Z,100675.59
2022-12-04T00:11:55.594Z,100672.91
2022-12-04T00:14:22.212Z,100672.13
2022-12-04T00:16:50.477Z,100672.94
2022-12-04T00:19:17.406Z,100672.72
2022-12-04T00:21:45.261Z,100664.75
2022-12-04T00:24:12.668Z,100666.81
2022-12-04T00:26:39.346Z,100680.53
2022-12-04T00:29:06.207Z,100667.81
2022-12-04T00:31:33.655Z,100675.47
2022-12-04T00:34:01.894Z,100668.00
2022-12-04T00:36:29.949Z,100667.91
2022-12-04T00:38:59.445Z,100665.47
2022-12-04T00:41:26.399Z,100666.91
2022-12-04T00:43:53.283Z,100657.59
2022-12-04T00:46:20.161Z,100658.22
2022-12-04T00:48:47.234Z,100650.63
2022-12-04T00:51:15.657Z,100645.63
2022-12-04T00:53:42.322Z,100649.41
2022-12-04T00:56:13.657Z,100652.47
2022-12-04T00:58:40.352Z,100654.50
2022-12-04T01:01:08.738Z,100655.44
2022-12-04T01:03:54.629Z,100650.53
2022-12-04T01:06:28.818Z,100647.75
2022-12-04T01:08:56.252Z,100648.72
2022-12-04T01:11:23.646Z,100647.34
2022-12-04T01:13:50.349Z,100644.69
2022-12-04T01:16:37.549Z,100644.69
2022-12-04T01:19:05.372Z,100648.78
2022-12-04T01:21:31.797Z,100646.56
2022-12-04T01:23:59.182Z,100657.63
2022-12-04T01:26:25.897Z,100649.31
2022-12-04T01:28:52.368Z,100656.59
2022-12-04T01:31:19.811Z,100648.19
2022-12-04T01:33:47.203Z,100654.34
2022-12-04T01:36:15.516Z,100653.31
2022-12-04T01:38:42.278Z,100649.44
2022-12-04T01:41:09.820Z,100651.09
2022-12-04T01:43:37.289Z,100646.06
2022-12-04T01:46:04.194Z,100650.06
2022-12-04T01:48:35.593Z,100641.88
2022-12-04T01:51:10.747Z,100644.72
2022-12-04T01:53:40.118Z,100652.31
2022-12-04T01:56:07.203Z,100642.25
2022-12-04T01:58:37.735Z,100652.31
2022-12-04T02:01:08.802Z,100648.22
2022-12-04T02:03:36.572Z,100648.63
2022-12-04T02:06:03.259Z,100639.94
2022-12-04T02:08:30.397Z,100645.13
2022-12-04T02:11:17.332Z,100639.72
2022-12-04T02:13:46.791Z,100637.97
2022-12-04T02:16:19.028Z,100639.41
2022-12-04T02:18:48.659Z,100643.09
2022-12-04T02:21:37.800Z,100640.66
2022-12-04T02:24:33.213Z,100635.53
2022-12-04T02:27:02.884Z,100635.03
2022-12-04T02:29:47.990Z,100636.03
2022-12-04T02:32:22.236Z,100631.94
2022-12-04T02:34:57.434Z,100631.53
2022-12-04T02:37:34.701Z,100629.66
2022-12-04T02:40:07.455Z,100632.34
2022-12-04T02:42:36.675Z,100636.75
2022-12-04T02:45:05.461Z,100631.63
2022-12-04T02:47:32.832Z,100630.00
2022-12-04T02:50:00.280Z,100625.69
2022-12-04T02:52:33.308Z,100627.75
2022-12-04T02:55:08.175Z,100626.91
2022-12-04T02:57:37.520Z,100631.00
2022-12-04T03:00:07.937Z,100628.56
2022-12-04T03:02:52.325Z,100625.19
2022-12-04T03:05:22.673Z,100629.56
2022-12-04T03:07:52.107Z,100630.78
2022-12-04T03:10:20.919Z,100631.34
2022-12-04T03:12:50.750Z,100640.84
2022-12-04T03:15:23.458Z,100645.34
2022-12-04T03:17:58.542Z,100641.47
2022-12-04T03:20:25.817Z,100635.81
2022-12-04T03:22:56.220Z,100639.19
2022-12-04T03:25:26.756Z,100633.66
2022-12-04T03:28:05.186Z,100639.31
2022-12-04T03:30:39.234Z,100637.16
2022-12-04T03:33:13.735Z,100650.66
2022-12-04T03:35:40.121Z,100645.22
2022-12-04T03:38:12.925Z,100644.72
2022-12-04T03:41:02.063Z,100647.09
2022-12-04T03:43:38.918Z,100639.81
2022-12-04T03:46:05.490Z,100637.38
2022-12-04T03:48:41.333Z,100649.25
2022-12-04T03:51:26.565Z,100651.06
2022-12-04T03:54:04.942Z,100644.72
2022-12-04T03:56:34.796Z,100640.03
2022-12-04T03:59:05.699Z,100640.63
2022-12-04T04:01:35.334Z,100641.63
2022-12-04T04:04:04.270Z,100644.63
2022-12-04T04:06:42.516Z,100638.59
2022-12-04T04:09:11.012Z,100636.53
2022-12-04T04:11:44.465Z,100633.06
2022-12-04T04:14:49.660Z,100632.13
2022-12-04T04:17:38.660Z,100635.81
2022-12-04T04:20:45.900Z,100641.03
2022-12-04T04:23:30.977Z,100633.56
2022-12-04T04:25:59.919Z,100636.81
2022-12-04T04:28:52.252Z,100638.59
2022-12-04T04:31:24.840Z,100636.72
2022-12-04T04:34:01.854Z,100636.44
2022-12-04T04:36:31.022Z,100641.22
2022-12-04T04:39:10.916Z,100639.88
2022-12-04T04:41:50.130Z,100637.16
2022-12-04T04:44:31.578Z,100636.72
2022-12-04T04:47:00.470Z,100627.41
2022-12-04T04:49:29.516Z,100629.03
2022-12-04T04:51:56.679Z,100634.66
2022-12-04T04:54:23.681Z,100631.19
2022-12-04T04:56:50.103Z,100627.00
2022-12-04T04:59:16.553Z,100628.44
2022-12-04T05:01:45.238Z,100628.94
2022-12-04T05:04:11.971Z,100624.22
2022-12-04T05:06:38.441Z,100616.97
2022-12-04T05:09:05.422Z,100619.41
2022-12-04T05:11:32.322Z,100614.94
2022-12-04T05:13:58.885Z,100609.56
2022-12-04T05:16:25.823Z,100605.19
2022-12-04T05:19:10.776Z,100608.06
2022-12-04T05:21:37.392Z,100607.25
2022-12-04T05:24:04.050Z,100609.47
2022-12-04T05:26:30.595Z,100619.63
2022-12-04T05:28:57.206Z,100618.47
2022-12-04T05:31:23.748Z,100612.34
2022-12-04T05:33:50.560Z,100612.13
2022-12-04T05:36:17.264Z,100615.28
2022-12-04T05:38:43.985Z,100615.28
2022-12-04T05:41:10.656Z,100614.13
2022-12-04T05:43:37.974Z,100614.72
2022-12-04T05:46:05.386Z,100604.31
2022-12-04T05:48:32.511Z,100615.09
2022-12-04T05:50:59.279Z,100605.59
2022-12-04T05:53:25.756Z,100602.06
2022-12-04T05:55:56.304Z,100609.06
2022-12-04T05:58:23.051Z,100611.38
2022-12-04T06:00:49.533Z,100606.53
2022-12-04T06:03:16.215Z,100617.59
2022-12-04T06:05:43.125Z,100615.38
2022-12-04T06:08:09.665Z,100619.97
2022-12-04T06:10:36.439Z,100623.66
2022-12-04T06:13:04.482Z,100625.78
2022-12-04T06:15:31.026Z,100618.47
2022-12-04T06:17:57.554Z,100620.56
2022-12-04T06:20:24.108Z,100616.16
2022-12-04T06:22:50.597Z,100617.31
2022-12-04T06:25:17.282Z,100625.16
2022-12-04T06:27:44.367Z,100629.63
2022-12-04T06:30:11.015Z,100625.59
2022-12-04T06:32:37.468Z,100624.31
2022-12-04T06:35:04.312Z,100630.88
2022-12-04T06:37:31.004Z,100631.31
2022-12-04T06:39:57.799Z,100636.41
2022-12-04T06:42:24.487Z,100625.16
2022-12-04T06:44:50.982Z,100627.41
2022-12-04T06:47:17.611Z,100636.06
2022-12-04T06:49:46.015Z,100640.47
2022-12-04T06:52:12.582Z,100632.47
2022-12-04T06:54:39.090Z,100636.97
2022-12-04T06:57:05.602Z,100642.50
2022-12-04T06:59:33.744Z,100650.91
2022-12-04T07:02:00.313Z,100653.75
2022-12-04T07:04:26.914Z,100640.38
2022-12-04T07:06:54.450Z,100644.25
2022-12-04T07:09:20.946Z,100641.91
2022-12-04T07:11:47.595Z,100644.94
2022-12-04T07:14:14.966Z,100654.78
2022-12-04T07:16:42.466Z,100655.41
2022-12-04T07:19:10.200Z,100650.78
2022-12-04T07:21:36.947Z,100649.88
2022-12-04T07:24:04.137Z,100652.22
2022-12-04T07:26:31.095Z,100652.25
2022-12-04T07:28:58.368Z,100651.53
2022-12-04T07:31:26.036Z,100644.31
2022-12-04T07:33:54.005Z,100641.75
2022-12-04T07:36:21.414Z,100648.06
2022-12-04T07:38:48.086Z,100649.44
2022-12-04T07:41:14.978Z,100646.59
2022-12-04T07:43:41.953Z,100658.03
2022-12-04T07:46:10.909Z,100658.22
2022-12-04T07:48:37.505Z,100653.50
2022-12-04T07:51:05.323Z,100657.19
2022-12-04T07:53:31.963Z,100658.59
2022-12-04T07:55:58.538Z,100656.34
2022-12-04T07:58:25.770Z,100662.47
2022-12-04T08:00:52.371Z,100671.91
2022-12-04T08:03:18.979Z,100674.56
2022-12-04T08:05:45.540Z,100671.84
2022-12-04T08:08:12.118Z,100665.38
2022-12-04T08:10:41.867Z,100677.47
2022-12-04T08:13:08.532Z,100669.72
2022-12-04T08:15:35.600Z,100667.91
2022-12-04T08:18:02.337Z,100663.41
2022-12-04T08:20:29.056Z,100671.38
2022-12-04T08:22:55.763Z,100670.56
2022-12-04T08:25:22.419Z,100673.19
2022-12-04T08:27:49.978Z,100680.78
2022-12-04T08:30:16.847Z,100670.44
2022-12-04T08:32:43.538Z,100668.72
2022-12-04T08:35:10.030Z,100673.31
2022-12-04T08:37:36.651Z,100671.47
2022-12-04T08:40:03.837Z,100663.91
2022-12-04T08:42:30.392Z,100661.31
2022-12-04T08:44:56.911Z,100669.63
2022-12-04T08:47:23.742Z,100655.00
2022-12-04T08:49:50.329Z,100665.84
2022-12-04T08:52:16.950Z,100666.44
2022-12-04T08:54:43.502Z,100656.22
2022-12-04T08:57:10.015Z,100648.44
2022-12-04T08:59:36.533Z,100654.47
2022-12-04T09:02:03.169Z,100653.84
2022-12-04T09:04:29.995Z,100665.00
2022-12-04T09:06:56.711Z,100662.47
2022-12-04T09:09:23.364Z,100661.22
2022-12-04T09:11:49.803Z,100664.59
2022-12-04T09:14:16.419Z,100672.28
2022-12-04T09:16:43.015Z,100668.91
2022-12-04T09:19:09.767Z,100675.47
2022-12-04T09:21:36.940Z,100668.28
2022-12-04T09:24:03.737Z,100675.56
2022-12-04T09:26:31.303Z,100671.97
2022-12-04T09:28:59.254Z,100668.50
2022-12-04T09:31:26.204Z,100668.38
2022-12-04T09:33:52.940Z,100669.22
2022-12-04T09:36:19.791Z,100676.06
2022-12-04T09:38:48.014Z,100676.69
2022-12-04T09:41:25.266Z,100683.88
2022-12-04T09:44:01.041Z,100688.78
2022-12-04T09:46:59.783Z,100686.31
2022-12-04T09:49:41.715Z,100695.53
2022-12-04T09:52:21.576Z,100698.81
2022-12-04T09:54:49.704Z,100716.44
2022-12-04T09:57:22.076Z,100707.81
2022-12-04T09:59:49.961Z,100704.34
2022-12-04T10:02:34.056Z,100713.78
2022-12-04T10:05:01.126Z,100705.28
2022-12-04T10:07:39.479Z,100706.38
2022-12-04T10:10:17.751Z,100694.81
2022-12-04T10:12:47.199Z,100687.13
2022-12-04T10:15:22.981Z,100693.50
2022-12-04T10:17:52.227Z,100688.78
2022-12-04T10:20:18.925Z,100691.03
2022-12-04T10:22:58.289Z,100695.75
2022-12-04T10:25:26.870Z,100694.31
2022-12-04T10:27:59.720Z,100694.09
2022-12-04T10:30:28.432Z,100687.56
2022-12-04T10:32:58.138Z,100688.28
2022-12-04T10:35:26.770Z,100687.97
2022-12-04T10:38:04.255Z,100690.63
2022-12-04T10:40:40.170Z,100687.34
2022-12-04T10:43:14.465Z,100681.59
2022-12-04T10:45:41.037Z,100678.34
2022-12-04T10:48:11.891Z,100687.97
2022-12-04T10:50:38.750Z,100691.44
2022-12-04T10:53:08.269Z,100686.53
2022-12-04T10:55:39.855Z,100676.06
2022-12-04T10:58:16.613Z,100680.16
2022-12-04T11:00:45.812Z,100691.56
2022-12-04T11:03:27.432Z,100685.31
2022-12-04T11:05:55.979Z,100677.91
2022-12-04T11:08:26.678Z,100678.56
2022-12-04T11:10:59.198Z,100679.16
2022-12-04T11:13:26.101Z,100671.06
2022-12-04T11:15:54.340Z,100667.88
2022-12-04T11:18:25.362Z,100660.19
2022-12-04T11:20:59.788Z,100661.72
2022-12-04T11:23:28.278Z,100665.53
2022-12-04T11:26:02.103Z,100665.94
2022-12-04T11:28:48.132Z,100654.59
2022-12-04T11:31:19.503Z,100657.22
2022-12-04T11:33:48.440Z,100653.50
2022-12-04T11:36:23.610Z,100655.44
2022-12-04T11:38:52.050Z,100649.91
2022-12-04T11:41:26.620Z,100644.25
2022-12-04T11:43:59.353Z,100643.25
2022-12-04T11:46:29.056Z,100642.63
2022-12-04T11:48:56.104Z,100638.09
2022-12-04T11:51:29.437Z,100638.59
2022-12-04T11:54:14.893Z,100630.13
2022-12-04T11:56:57.408Z,100626.47
2022-12-04T11:59:39.562Z,100624.63
2022-12-04T12:02:08.878Z,100615.00
2022-12-04T12:05:01.306Z,100625.34
2022-12-04T12:07:32.581Z,100620.53
2022-12-04T12:09:59.909Z,100627.00
2022-12-04T12:12:45.159Z,100617.66
2022-12-04T12:15:11.881Z,100619.41
2022-12-04T12:17:59.638Z,100611.75
2022-12-04T12:20:38.076Z,100619.50
2022-12-04T12:23:31.003Z,100620.53
2022-12-04T12:25:57.652Z,100627.19
2022-12-04T12:28:35.964Z,100630.78
2022-12-04T12:31:21.118Z,100624.41
2022-12-04T12:34:01.168Z,100627.31
2022-12-04T12:36:31.648Z,100619.50
2022-12-04T12:39:09.985Z,100618.50
2022-12-04T12:41:41.866Z,100620.13
2022-12-04T12:44:14.971Z,100618.81
2022-12-04T12:46:48.995Z,100617.06
2022-12-04T12:49:20.588Z,100617.28
2022-12-04T12:51:50.861Z,100613.34
2022-12-04T12:54:17.442Z,100615.63
2022-12-04T12:56:49.720Z,100618.72
2022-12-04T12:59:21.308Z,100621.16
2022-12-04T13:01:55.945Z,100615.13
2022-12-04T13:04:30.684Z,100608.44
2022-12-04T13:07:06.540Z,100604.06
2022-12-04T13:09:35.141Z,100601.50
2022-12-04T13:12:12.621Z,100590.72
2022-12-04T13:14:39.227Z,100594.00
2022-12-04T13:17:13.313Z,100590.81
2022-12-04T13:19:47.716Z,100590.22
2022-12-04T13:22:14.342Z,100587.34
2022-12-04T13:24:46.804Z,100589.59
2022-12-04T13:27:16.110Z,100580.47
2022-12-04T13:29:55.146Z,100584.44
2022-12-04T13:32:40.805Z,100586.13
2022-12-04T13:35:08.581Z,100579.91
2022-12-04T13:37:47.385Z,100578.53
2022-12-04T13:40:16.928Z,100581.41
2022-12-04T13:42:43.784Z,100591.06
2022-12-04T13:45:25.854Z,100593.50
2022-12-04T13:47:59.019Z,100597.38
2022-12-04T13:50:28.148Z,100591.44
2022-12-04T13:52:55.198Z,100588.56
2022-12-04T13:55:23.965Z,100588.78
2022-12-04T13:57:58.462Z,100587.47
2022-12-04T14:00:25.512Z,100581.41
2022-12-04T14:02:53.941Z,100579.16
2022-12-04T14:05:32.554Z,100589.69
2022-12-04T14:08:04.313Z,100589.19
2022-12-04T14:10:38.104Z,100590.44
2022-12-04T14:13:07.018Z,100582.53
2022-12-04T14:15:35.711Z,100592.88
2022-12-04T14:18:11.228Z,100590.09
2022-12-04T14:20:38.772Z,100582.31
2022-12-04T14:23:07.921Z,100586.31
2022-12-04T14:25:39.171Z,100590.72
2022-12-04T14:28:13.387Z,100597.88
2022-12-04T14:30:40.680Z,100594.06
2022-12-04T14:33:07.257Z,100594.63
2022-12-04T14:35:34.087Z,100590.91
2022-12-04T14:38:02.017Z,100586.91
2022-12-04T14:40:30.156Z,100587.34
2022-12-04T14:42:56.600Z,100593.38
2022-12-04T14:45:34.243Z,100595.81
2022-12-04T14:48:03.661Z,100589.66
2022-12-04T14:50:42.091Z,100594.69
2022-12-04T14:53:17.359Z,100594.59
2022-12-04T14:55:55.812Z,100592.34
2022-12-04T14:58:31.908Z,100591.72
2022-12-04T15:00:59.863Z,100590.41
2022-12-04T15:03:27.453Z,100603.44
2022-12-04T15:06:01.461Z,100600.59
2022-12-04T15:08:28.069Z,100602.84
2022-12-04T15:11:13.139Z,100608.06
2022-12-04T15:13:39.911Z,100606.25
2022-12-04T15:16:11.128Z,100615.38
2022-12-04T15:18:39.718Z,100620.72
2022-12-04T15:21:07.451Z,100611.38
2022-12-04T15:23:34.084Z,100613.22
2022-12-04T15:26:01.789Z,100609.63
2022-12-04T15:28:34.074Z,100616.41
2022-12-04T15:31:01.816Z,100614.75
2022-12-04T15:33:32.169Z,100622.97
2022-12-04T15:36:09.910Z,100619.91
2022-12-04T15:38:36.925Z,100623.72
2022-12-04T15:41:03.430Z,100627.09
2022-12-04T15:43:32.737Z,100628.22
2022-12-04T15:45:59.651Z,100632.03
2022-12-04T15:48:30.773Z,100626.47
2022-12-04T15:51:02.219Z,100629.34
2022-12-04T15:53:31.131Z,100627.91
2022-12-04T15:56:00.044Z,100626.47
2022-12-04T15:58:28.728Z,100624.22
2022-12-04T16:00:57.810Z,100619.69
2022-12-04T16:03:24.329Z,100620.31
2022-12-04T16:06:01.470Z,100629.25
2022-12-04T16:08:32.391Z,100618.69
2022-12-04T16:11:01.384Z,100622.28
2022-12-04T16:13:37.954Z,100621.56
2022-12-04T16:16:06.174Z,100621.03
2022-12-04T16:18:32.983Z,100620.53
2022-12-04T16:21:00.034Z,100623.19
2022-12-04T16:23:27.248Z,100627.72
2022-12-04T16:25:54.015Z,100619.91
2022-12-04T16:28:20.994Z,100625.22
2022-12-04T16:30:47.959Z,100622.38
2022-12-04T16:33:15.780Z,100630.03
2022-12-04T16:35:42.571Z,100625.94
2022-12-04T16:38:13.410Z,100629.66
2022-12-04T16:40:40.415Z,100630.56
2022-12-04T16:43:07.045Z,100632.09
2022-12-04T16:45:34.615Z,100632.72
2022-12-04T16:48:01.119Z,100637.56
2022-12-04T16:50:27.692Z,100632.53
2022-12-04T16:52:54.450Z,100632.59
2022-12-04T16:55:34.306Z,100643.09
2022-12-04T16:58:02.308Z,100645.31
2022-12-04T17:00:29.520Z,100646.59
2022-12-04T17:02:56.312Z,100645.53
2022-12-04T17:05:24.418Z,100646.97
2022-12-04T17:07:51.190Z,100642.69
2022-12-04T17:10:23.564Z,100642.41
2022-12-04T17:12:52.243Z,100649.31
2022-12-04T17:15:18.875Z,100660.59
2022-12-04T17:17:45.450Z,100663.41
2022-12-04T17:20:13.684Z,100653.34
2022-12-04T17:22:40.556Z,100660.16
2022-12-04T17:25:07.877Z,100650.97
2022-12-04T17:27:34.865Z,100662.16
2022-12-04T17:30:01.432Z,100663.84
2022-12-04T17:32:30.480Z,100654.03
2022-12-04T17:34:57.483Z,100646.47
2022-12-04T17:37:24.453Z,100649.34
2022-12-04T17:39:50.909Z,100648.38
2022-12-04T17:42:17.927Z,100650.56
2022-12-04T17:44:45.150Z,100650.06
2022-12-04T17:47:12.127Z,100650.81
2022-12-04T17:49:38.803Z,100649.38
2022-12-04T17:52:05.283Z,100656.47
2022-12-04T17:54:31.869Z,100652.06
2022-12-04T17:56:58.639Z,100647.34
2022-12-04T17:59:25.248Z,100645.81
2022-12-04T18:01:51.988Z,100646.81
2022-12-04T18:04:19.250Z,100644.25
2022-12-04T18:06:46.065Z,100642.63
2022-12-04T18:09:14.119Z,100644.38
2022-12-04T18:11:41.749Z,100645.19
2022-12-04T18:14:12.163Z,100639.47
2022-12-04T18:16:41.304Z,100637.81
2022-12-04T18:19:08.273Z,100638.13
2022-12-04T18:21:35.052Z,100644.66
2022-12-04T18:24:02.922Z,100644.91
2022-12-04T18:26:33.064Z,100645.72
2022-12-04T18:28:59.821Z,100651.47
2022-12-04T18:31:26.538Z,100646.13
2022-12-04T18:33:52.977Z,100647.97
2022-12-04T18:36:20.515Z,100652.88
2022-12-04T18:38:47.631Z,100654.66
2022-12-04T18:41:14.438Z,100654.66
2022-12-04T18:43:42.688Z,100651.06
2022-12-04T18:46:11.746Z,100656.56
2022-12-04T18:48:39.210Z,100650.03
2022-12-04T18:51:16.242Z,100653.50
2022-12-04T18:53:43.341Z,100657.81
2022-12-04T18:56:09.928Z,100658.53
2022-12-04T18:58:36.489Z,100658.34
2022-12-04T19:01:09.795Z,100654.94
2022-12-04T19:03:36.579Z,100659.69
2022-12-04T19:06:03.926Z,100664.06
2022-12-04T19:08:33.718Z,100665.22
2022-12-04T19:11:09.424Z,100657.41
2022-12-04T19:13:35.998Z,100662.97
2022-12-04T19:16:03.254Z,100667.44
2022-12-04T19:18:30.034Z,100660.69
2022-12-04T19:20:57.090Z,100665.22
2022-12-04T19:23:24.004Z,100666.34
2022-12-04T19:25:57.309Z,100665.84
2022-12-04T19:28:24.511Z,100662.97
2022-12-04T19:30:51.146Z,100665.84
2022-12-04T19:33:17.651Z,100668.28
2022-12-04T19:35:44.254Z,100673.59
2022-12-04T19:38:10.890Z,100669.31
2022-12-04T19:40:37.528Z,100672.16
2022-12-04T19:43:04.224Z,100665.41
2022-12-04T19:45:30.871Z,100673.22
2022-12-04T19:47:57.550Z,100672.59
2022-12-04T19:50:24.054Z,100669.72
2022-12-04T19:52:50.525Z,100671.38
2022-12-04T19:55:17.115Z,100673.59
2022-12-04T19:57:43.711Z,100676.91
2022-12-04T20:00:10.610Z,100678.13
2022-12-04T20:02:40.158Z,100686.31
2022-12-04T20:05:06.782Z,100680.28
2022-12-04T20:07:33.367Z,100685.09
2022-12-04T20:10:00.290Z,100679.56
2022-12-04T20:12:26.875Z,100690.44
2022-12-04T20:14:53.410Z,100681.63
2022-12-04T20:17:19.914Z,100686.72
2022-12-04T20:19:46.494Z,100681.09
2022-12-04T20:22:13.077Z,100684.16
2022-12-04T20:24:39.625Z,100687.75
2022-12-04T20:27:06.204Z,100685.28
2022-12-04T20:29:33.316Z,100686.22
2022-12-04T20:31:59.854Z,100682.34
2022-12-04T20:34:26.288Z,100684.28
2022-12-04T20:36:53.130Z,100683.66
2022-12-04T20:39:20.723Z,100685.50
2022-12-04T20:41:47.240Z,100682.63
2022-12-04T20:44:14.887Z,100681.41
2022-12-04T20:46:42.606Z,100681.91
2022-12-04T20:49:15.823Z,100681.41
2022-12-04T20:51:47.988Z,100688.16
2022-12-04T20:54:18.260Z,100685.50
2022-12-04T20:56:45.515Z,100680.97
2022-12-04T20:59:13.231Z,100678.63
2022-12-04T21:01:40.468Z,100682.94
2022-12-04T21:04:07.287Z,100689.59
2022-12-04T21:06:35.945Z,100685.09
2022-12-04T21:09:05.892Z,100681.00
2022-12-04T21:11:36.797Z,100678.94
2022-12-04T21:14:23.326Z,100677.53
2022-12-04T21:16:50.033Z,100679.25
2022-12-04T21:19:17.524Z,100675.88
2022-12-04T21:21:44.188Z,100690.19
2022-12-04T21:24:11.635Z,100681.41
2022-12-04T21:26:38.493Z,100685.00
2022-12-04T21:29:05.698Z,100679.66
2022-12-04T21:31:32.390Z,100675.88
2022-12-04T21:33:59.932Z,100678.63
2022-12-04T21:36:27.117Z,100673.59
2022-12-04T21:38:54.123Z,100670.22
2022-12-04T21:41:39.334Z,100664.56
2022-12-04T21:44:06.783Z,100666.84
2022-12-04T21:46:33.501Z,100671.25
2022-12-04T21:49:00.651Z,100667.34
2022-12-04T21:51:55.878Z,100673.41
2022-12-04T21:54:14.464Z,100675.44
2022-12-04T21:56:41.092Z,100675.59
2022-12-04T21:59:07.755Z,100665.56
2022-12-04T22:01:34.352Z,100677.66
2022-12-04T22:04:01.103Z,100674.16
2022-12-04T22:06:27.841Z,100675.41
2022-12-04T22:08:55.045Z,100680.50
2022-12-04T22:11:21.967Z,100684.59
2022-12-04T22:13:48.696Z,100695.69
2022-12-04T22:16:16.410Z,100694.44
2022-12-04T22:18:43.206Z,100700.81
2022-12-04T22:21:11.069Z,100696.72
2022-12-04T22:23:37.729Z,100695.88
2022-12-04T22:26:08.877Z,100693.22
2022-12-04T22:28:35.623Z,100701.03
2022-12-04T22:31:06.357Z,100698.97
2022-12-04T22:33:33.444Z,100697.69
2022-12-04T22:36:07.502Z,100705.28
2022-12-04T22:38:42.483Z,100708.63
2022-12-04T22:41:19.966Z,100704.41
2022-12-04T22:43:46.564Z,100703.53
2022-12-04T22:46:14.304Z,100702.69
2022-12-04T22:48:41.615Z,100709.69
2022-12-04T22:51:12.504Z,100711.09
2022-12-04T22:53:45.823Z,100703.72
2022-12-04T22:56:19.808Z,100704.56
2022-12-04T22:58:46.556Z,100710.19
2022-12-04T23:01:17.755Z,100711.94
2022-12-04T23:03:44.953Z,100709.50
2022-12-04T23:06:11.919Z,100702.91
2022-12-04T23:08:39.197Z,100705.47
2022-12-04T23:11:07.247Z,100701.28
2022-12-04T23:13:34.261Z,100708.84
2022-12-04T23:16:04.975Z,100710.59
2022-12-04T23:18:35.057Z,100709.50
2022-12-04T23:21:05.985Z,100710.09
2022-12-04T23:23:33.440Z,100704.47
2022-12-04T23:26:06.974Z,100702.31
2022-12-04T23:28:33.550Z,100695.22
2022-12-04T23:31:01.366Z,100696.34
2022-12-04T23:33:28.154Z,100699.13
2022-12-04T23:35:56.132Z,100696.19
2022-12-04T23:38:23.064Z,100692.78
2022-12-04T23:40:49.886Z,100696.19
2022-12-04T23:43:16.992Z,100700.56
2022-12-04T23:45:43.834Z,100703.94
2022-12-04T23:48:10.427Z,100702.72
2022-12-04T23:50:37.087Z,100706.00
2022-12-04T23:53:03.744Z,100711.13
2022-12-04T23:55:34.391Z,100705.59
2022-12-04T23:58:01.770Z,100701.69
